Time;durP1;ratioP1;P1;durP2;ratioP2;P2;SDS_P1;SDS_P2;PMS_P1;PMS_P2;Temp;Humidity;BMP_temperature;BMP_pressure;BME280_temperature;BME280_humidity;BME280_pressure;Samples;Min_cycle;Max_cycle;Signal;HPM_P1;HPM_P2
2021/03/04 00:00:52;;;;;;;8.47;5.63;;;;;;;9.32;50.66;96312.16;5044208;28;20218;-82
2021/03/04 00:03:18;;;;;;;8.17;5.50;;;;;;;9.33;50.66;96312.97;5053656;28;20338;-84
2021/03/04 00:05:45;;;;;;;7.20;5.90;;;;;;;9.30;50.60;96301.22;5050939;28;20766;-84
2021/03/04 00:08:11;;;;;;;7.80;5.97;;;;;;;9.30;50.47;96298.66;5051675;28;20229;-84
2021/03/04 00:10:40;;;;;;;9.37;5.87;;;;;;;9.30;50.69;96297.84;5050104;28;20206;-84
2021/03/04 00:13:05;;;;;;;6.63;5.97;;;;;;;9.33;51.07;96294.97;5033468;28;20210;-82
2021/03/04 00:15:33;;;;;;;12.10;6.53;;;;;;;9.32;51.17;96289.03;5048930;28;20252;-82
2021/03/04 00:18:00;;;;;;;6.70;5.80;;;;;;;9.30;51.12;96290.13;5045630;28;20221;-83
2021/03/04 00:20:28;;;;;;;6.63;5.10;;;;;;;9.28;50.65;96289.47;5031987;28;20247;-82
2021/03/04 00:22:54;;;;;;;8.57;5.67;;;;;;;9.27;50.88;96285.28;5035876;28;20236;-83
2021/03/04 00:25:25;;;;;;;7.90;5.90;;;;;;;9.26;51.32;96284.50;5052936;28;20201;-82
2021/03/04 00:27:51;;;;;;;6.37;5.47;;;;;;;9.27;51.02;96283.53;5042241;28;20225;-81
2021/03/04 00:30:18;;;;;;;6.80;5.40;;;;;;;9.30;51.03;96274.72;5031414;28;20246;-82
2021/03/04 00:32:44;;;;;;;7.10;5.10;;;;;;;9.30;50.98;96272.97;5039234;28;20297;-82
2021/03/04 00:35:11;;;;;;;7.77;5.47;;;;;;;9.31;51.50;96266.88;5031811;28;20232;-81
2021/03/04 00:37:37;;;;;;;8.87;5.23;;;;;;;9.34;51.61;96264.00;5035350;28;20229;-82
2021/03/04 00:40:06;;;;;;;6.20;5.60;;;;;;;9.33;51.14;96271.84;5052761;28;20209;-82
2021/03/04 00:42:33;;;;;;;6.63;5.27;;;;;;;9.31;51.43;96271.19;5034562;28;20222;-82
2021/03/04 00:44:59;;;;;;;7.30;5.30;;;;;;;9.30;51.33;96256.72;5034025;28;20226;-81
2021/03/04 00:47:25;;;;;;;7.80;5.10;;;;;;;9.29;51.15;96261.06;5048807;28;20228;-81
2021/03/04 00:49:51;;;;;;;8.03;5.67;;;;;;;9.25;51.36;96258.94;5032711;28;20222;-83
2021/03/04 00:52:18;;;;;;;6.87;5.47;;;;;;;9.21;51.33;96253.31;5033336;28;20213;-82
2021/03/04 00:54:44;;;;;;;6.43;5.60;;;;;;;9.20;51.60;96256.03;5052138;28;20229;-83
2021/03/04 00:57:10;;;;;;;8.77;5.77;;;;;;;9.20;51.11;96254.28;5046026;28;20230;-82
2021/03/04 00:59:37;;;;;;;6.37;5.33;;;;;;;9.18;51.07;96242.53;5038322;28;20772;-84
2021/03/04 01:02:03;;;;;;;7.80;5.37;;;;;;;9.16;51.63;96240.13;5047707;28;20290;-82
2021/03/04 01:04:29;;;;;;;6.10;5.20;;;;;;;9.16;51.72;96239.31;5051885;28;20228;-82
2021/03/04 01:06:55;;;;;;;6.33;5.13;;;;;;;9.13;51.87;96240.41;5049108;28;20214;-81
2021/03/04 01:09:21;;;;;;;8.13;5.73;;;;;;;9.13;51.66;96240.41;5032356;28;20233;-80
2021/03/04 01:11:47;;;;;;;9.23;5.30;;;;;;;9.14;51.98;96234.31;5034467;28;20664;-81
2021/03/04 01:14:13;;;;;;;7.03;5.17;;;;;;;9.07;52.65;96229.94;5046491;28;20230;-83
2021/03/04 01:16:40;;;;;;;6.37;5.77;;;;;;;9.05;51.90;96222.38;5036725;28;20218;-83
2021/03/04 01:19:06;;;;;;;9.70;5.20;;;;;;;9.04;52.22;96223.34;5056324;28;20742;-82
2021/03/04 01:21:32;;;;;;;5.30;4.80;;;;;;;9.01;52.44;96208.25;5055954;28;20229;-80
2021/03/04 01:23:58;;;;;;;5.83;5.30;;;;;;;8.98;52.08;96205.97;5035616;28;20245;-80
2021/03/04 01:26:23;;;;;;;9.13;5.40;;;;;;;8.94;52.16;96202.91;5035737;28;20225;-81
2021/03/04 01:28:49;;;;;;;6.93;5.53;;;;;;;8.95;52.70;96193.44;5039870;28;20225;-81
2021/03/04 01:31:15;;;;;;;7.23;5.67;;;;;;;8.90;53.25;96198.22;5056349;28;20221;-82
2021/03/04 01:33:42;;;;;;;5.57;4.97;;;;;;;8.90;52.51;96204.16;5072939;28;20244;-83
2021/03/04 01:36:08;;;;;;;6.70;5.23;;;;;;;8.89;52.60;96196.59;5063290;28;20229;-81
2021/03/04 01:38:34;;;;;;;6.70;5.47;;;;;;;8.90;52.68;96193.88;5071640;28;20290;-82
2021/03/04 01:41:00;;;;;;;5.83;5.10;;;;;;;8.94;52.56;96187.50;5059755;28;20237;-84
2021/03/04 01:43:26;;;;;;;5.13;4.70;;;;;;;8.96;52.48;96192.47;5048605;28;20218;-84
2021/03/04 01:45:52;;;;;;;5.43;4.93;;;;;;;8.95;52.51;96181.41;5054992;28;20229;-82
2021/03/04 01:48:18;;;;;;;6.07;4.83;;;;;;;8.98;52.03;96188.00;5055566;28;20256;-81
2021/03/04 01:50:47;;;;;;;5.37;4.67;;;;;;;8.97;51.33;96184.63;5055544;28;20308;-80
2021/03/04 01:53:13;;;;;;;6.63;4.53;;;;;;;8.96;51.30;96171.94;5068782;28;20236;-81
2021/03/04 01:55:39;;;;;;;5.03;4.57;;;;;;;8.99;51.32;96175.00;5075734;28;20192;-84
2021/03/04 01:58:05;;;;;;;6.03;5.23;;;;;;;8.99;50.99;96179.34;5062180;28;20200;-82
2021/03/04 02:00:31;;;;;;;7.27;4.70;;;;;;;9.03;50.44;96156.72;5038020;28;20226;-82
2021/03/04 02:02:57;;;;;;;8.40;4.70;;;;;;;9.04;50.44;96161.72;5045359;28;20229;-82
2021/03/04 02:05:24;;;;;;;4.93;4.43;;;;;;;9.06;49.91;96158.97;5039203;28;20222;-82
2021/03/04 02:08:07;;;;;;;5.93;4.40;;;;;;;9.07;49.66;96163.16;5044074;28;20596;-82
2021/03/04 02:10:40;;;;;;;6.17;4.70;;;;;;;9.04;49.53;96159.16;5054758;28;20212;-81
2021/03/04 02:13:14;;;;;;;5.23;4.47;;;;;;;9.07;50.02;96155.44;5053811;28;20262;-82
2021/03/04 02:15:46;;;;;;;6.77;4.37;;;;;;;9.06;49.83;96146.94;5055365;28;20230;-82
2021/03/04 02:18:15;;;;;;;5.23;4.20;;;;;;;9.07;49.57;96143.41;5041117;28;20245;-83
2021/03/04 02:21:04;;;;;;;4.70;4.17;;;;;;;9.07;49.28;96145.16;5034205;28;20732;-81
2021/03/04 02:23:46;;;;;;;5.93;3.90;;;;;;;9.07;49.33;96145.97;5049193;28;20233;-84
2021/03/04 02:26:23;;;;;;;4.77;3.87;;;;;;;9.07;49.27;96138.25;5054302;28;20766;-81
2021/03/04 02:28:55;;;;;;;4.70;4.20;;;;;;;9.08;49.36;96139.88;5037274;28;20260;-83
2021/03/04 02:31:21;;;;;;;4.50;3.90;;;;;;;9.10;49.49;96135.41;5049585;28;20194;-82
2021/03/04 02:33:48;;;;;;;6.20;4.87;;;;;;;9.10;49.25;96134.59;5055598;28;20229;-84
2021/03/04 02:36:15;;;;;;;7.60;4.20;;;;;;;9.09;49.61;96131.22;5041209;28;20229;-83
2021/03/04 02:38:42;;;;;;;4.87;4.37;;;;;;;9.08;49.97;96129.59;5036281;28;20229;-83
2021/03/04 02:41:08;;;;;;;4.77;4.33;;;;;;;9.08;50.22;96132.16;5034560;28;20230;-85
2021/03/04 02:43:36;;;;;;;6.87;5.17;;;;;;;9.04;50.00;96130.09;5040032;28;20213;-82
2021/03/04 02:46:04;;;;;;;6.83;4.57;;;;;;;9.03;50.44;96131.84;5054393;28;20312;-82
2021/03/04 02:48:31;;;;;;;4.80;4.30;;;;;;;8.99;50.73;96138.25;5048806;28;20788;-83
2021/03/04 02:51:00;;;;;;;5.30;4.20;;;;;;;8.96;50.58;96135.97;5033417;28;20325;-82
2021/03/04 02:53:28;;;;;;;5.80;4.60;;;;;;;8.98;50.42;96129.72;5039020;28;20229;-84
2021/03/04 02:55:56;;;;;;;4.90;4.30;;;;;;;8.99;50.55;96133.91;5044153;28;20230;-82
2021/03/04 02:58:23;;;;;;;6.77;4.73;;;;;;;9.03;50.19;96133.63;5038498;28;20243;-80
2021/03/04 03:00:50;;;;;;;5.73;4.40;;;;;;;9.05;50.08;96131.66;5055371;28;20244;-85
2021/03/04 03:03:18;;;;;;;4.43;4.03;;;;;;;9.04;49.42;96128.31;5052335;28;20275;-83
2021/03/04 03:05:45;;;;;;;4.83;4.40;;;;;;;9.03;49.37;96120.78;5038797;28;20220;-84
2021/03/04 03:08:14;;;;;;;5.67;4.87;;;;;;;8.98;48.91;96119.47;5053628;28;20376;-81
2021/03/04 03:10:43;;;;;;;5.93;4.80;;;;;;;9.00;48.89;96122.69;5051715;28;20205;-83
2021/03/04 03:13:10;;;;;;;7.40;4.50;;;;;;;9.04;48.68;96127.50;5053656;28;20197;-82
2021/03/04 03:15:36;;;;;;;5.30;4.40;;;;;;;9.05;48.60;96118.81;5033611;28;20230;-81
2021/03/04 03:18:02;;;;;;;5.17;4.67;;;;;;;9.05;49.01;96117.06;5033817;28;20229;-81
2021/03/04 03:20:29;;;;;;;5.27;4.73;;;;;;;9.07;48.75;96117.72;5044890;28;20221;-81
2021/03/04 03:22:54;;;;;;;4.80;4.30;;;;;;;9.07;48.59;96122.84;5032710;28;20256;-84
2021/03/04 03:25:20;;;;;;;7.20;4.40;;;;;;;9.05;49.03;96121.41;5050551;28;20197;-83
2021/03/04 03:27:47;;;;;;;5.23;4.20;;;;;;;9.04;49.11;96112.09;5042385;28;20275;-83
2021/03/04 03:30:17;;;;;;;5.47;4.83;;;;;;;9.02;48.91;96114.81;5034250;28;20221;-82
2021/03/04 03:32:46;;;;;;;6.27;4.67;;;;;;;9.01;48.63;96110.66;5033119;28;20647;-84
2021/03/04 03:35:14;;;;;;;5.27;4.67;;;;;;;8.91;48.70;96115.88;5035269;28;20214;-83
2021/03/04 03:37:42;;;;;;;4.70;4.17;;;;;;;8.88;48.59;96111.03;5012854;28;20222;-80
2021/03/04 03:40:10;;;;;;;6.53;4.63;;;;;;;8.90;48.85;96109.13;5016507;28;20234;-83
2021/03/04 03:42:40;;;;;;;7.17;4.53;;;;;;;8.91;48.57;96115.06;5052800;28;20275;-84
2021/03/04 03:45:09;;;;;;;5.33;4.13;;;;;;;8.90;48.70;96113.47;5050622;28;20622;-83
2021/03/04 03:47:37;;;;;;;7.67;4.60;;;;;;;8.92;48.46;96112.34;5032695;28;20249;-83
2021/03/04 03:50:04;;;;;;;5.97;4.63;;;;;;;8.92;48.63;96112.34;5037531;28;20233;-82
2021/03/04 03:52:31;;;;;;;7.53;4.93;;;;;;;8.94;48.63;96109.63;5052512;28;20201;-83
2021/03/04 03:54:59;;;;;;;9.73;4.63;;;;;;;8.98;48.49;96114.31;5048840;28;20206;-82
2021/03/04 03:57:27;;;;;;;7.07;4.70;;;;;;;9.01;48.93;96118.34;5048674;28;20292;-83
2021/03/04 03:59:55;;;;;;;5.13;4.63;;;;;;;9.05;48.72;96116.25;5031825;28;20621;-80
2021/03/04 04:02:21;;;;;;;4.93;4.33;;;;;;;9.06;48.47;96116.09;5032911;28;20780;-81
2021/03/04 04:04:47;;;;;;;5.23;4.73;;;;;;;9.07;48.92;96114.34;5052291;28;20704;-82
2021/03/04 04:07:14;;;;;;;8.77;4.23;;;;;;;9.04;48.32;96110.34;5051538;28;20221;-81
2021/03/04 04:09:40;;;;;;;6.40;4.93;;;;;;;9.09;48.74;96120.13;5031324;28;20230;-81
2021/03/04 04:12:08;;;;;;;4.77;4.27;;;;;;;9.08;48.73;96111.63;5042013;28;20229;-82
2021/03/04 04:14:34;;;;;;;6.73;4.53;;;;;;;9.08;48.36;96105.69;5031615;28;20226;-82
2021/03/04 04:17:01;;;;;;;6.00;4.47;;;;;;;9.11;48.42;96110.50;5039262;28;20225;-82
2021/03/04 04:19:27;;;;;;;5.73;4.70;;;;;;;9.14;48.31;96116.16;5051931;28;20680;-81
2021/03/04 04:21:53;;;;;;;5.80;4.30;;;;;;;9.15;48.55;96107.50;5044478;28;20222;-81
2021/03/04 04:24:19;;;;;;;7.57;4.50;;;;;;;9.14;48.46;96102.50;5031080;28;20875;-82
2021/03/04 04:26:45;;;;;;;6.27;4.87;;;;;;;9.08;48.57;96100.53;5034428;28;20229;-81
2021/03/04 04:29:12;;;;;;;5.07;4.50;;;;;;;9.07;48.38;96104.06;5030881;28;20256;-82
2021/03/04 04:31:40;;;;;;;6.30;4.50;;;;;;;9.07;48.38;96101.50;5035585;28;20198;-82
2021/03/04 04:34:06;;;;;;;5.03;4.40;;;;;;;9.06;48.45;96105.03;5032512;28;20290;-82
2021/03/04 04:36:32;;;;;;;6.33;4.43;;;;;;;9.08;48.22;96095.41;5030646;28;20229;-82
2021/03/04 04:38:58;;;;;;;4.93;4.23;;;;;;;9.08;48.11;96097.97;5034856;28;20244;-84
2021/03/04 04:41:24;;;;;;;6.67;4.33;;;;;;;9.07;48.23;96093.78;5049923;28;20670;-84
2021/03/04 04:43:50;;;;;;;4.80;4.00;;;;;;;9.09;48.07;96090.13;5039081;28;20237;-84
2021/03/04 04:46:17;;;;;;;5.77;4.40;;;;;;;9.12;48.08;96091.56;5050451;28;20231;-82
2021/03/04 04:48:44;;;;;;;4.97;4.17;;;;;;;9.15;48.55;96092.06;5011689;28;20424;-83
2021/03/04 04:51:10;;;;;;;6.23;4.27;;;;;;;9.14;47.83;96081.94;5011101;28;20330;-83
2021/03/04 04:53:36;;;;;;;4.73;4.20;;;;;;;9.14;48.10;96082.75;5050507;28;20236;-83
2021/03/04 04:56:02;;;;;;;7.33;4.67;;;;;;;9.13;48.32;96085.47;5048169;28;20233;-84
2021/03/04 04:58:28;;;;;;;6.87;4.60;;;;;;;9.15;47.97;96081.00;5050013;28;20193;-83
2021/03/04 05:00:54;;;;;;;9.70;4.90;;;;;;;9.16;48.27;96085.16;5049943;28;20304;-83
2021/03/04 05:03:21;;;;;;;7.63;4.63;;;;;;;9.16;48.03;96077.47;5051035;28;20289;-83
2021/03/04 05:05:47;;;;;;;5.60;4.67;;;;;;;9.17;47.95;96079.88;5049497;28;20229;-83
2021/03/04 05:08:12;;;;;;;7.37;4.47;;;;;;;9.17;47.95;96072.19;5047848;28;20232;-85
2021/03/04 05:10:40;;;;;;;7.43;4.40;;;;;;;9.19;48.30;96066.88;5051709;28;20206;-85
2021/03/04 05:13:06;;;;;;;5.77;4.50;;;;;;;9.18;48.46;96067.84;5051647;28;20197;-82
2021/03/04 05:15:32;;;;;;;5.20;4.23;;;;;;;9.18;47.92;96063.50;5050678;28;20248;-83
2021/03/04 05:17:58;;;;;;;9.00;4.50;;;;;;;9.19;47.96;96059.97;5051041;28;20225;-83
2021/03/04 05:20:27;;;;;;;7.00;4.50;;;;;;;9.21;48.49;96055.50;5043349;28;20234;-84
2021/03/04 05:22:53;;;;;;;6.23;4.40;;;;;;;9.19;48.22;96054.84;5030820;28;20233;-83
2021/03/04 05:25:19;;;;;;;5.03;4.10;;;;;;;9.21;48.51;96052.94;5031492;28;20559;-85
2021/03/04 05:27:48;;;;;;;9.10;4.93;;;;;;;9.21;47.87;96052.94;5031060;28;20249;-83
2021/03/04 05:30:15;;;;;;;6.43;4.80;;;;;;;9.19;48.09;96054.03;5031413;28;20233;-84
2021/03/04 05:32:41;;;;;;;7.50;4.73;;;;;;;9.19;48.14;96052.28;5030991;28;20233;-83
2021/03/04 05:35:08;;;;;;;9.27;4.30;;;;;;;9.19;48.07;96052.28;5030512;28;20230;-82
2021/03/04 05:37:35;;;;;;;6.77;4.13;;;;;;;9.19;48.17;96051.47;5011375;28;20443;-83
2021/03/04 05:40:01;;;;;;;6.03;4.20;;;;;;;9.14;48.02;96046.78;5011221;28;20219;-82
2021/03/04 05:42:30;;;;;;;4.00;3.53;;;;;;;9.11;48.02;96051.44;5011427;28;20319;-82
2021/03/04 05:44:57;;;;;;;10.17;5.00;;;;;;;9.11;48.11;96046.28;5011772;28;20900;-83
2021/03/04 05:47:24;;;;;;;8.10;4.63;;;;;;;9.10;48.34;96044.69;5023287;28;20804;-83
2021/03/04 05:49:59;;;;;;;6.60;4.20;;;;;;;9.10;48.08;96042.91;5028978;28;20689;-83
2021/03/04 05:52:26;;;;;;;6.80;4.50;;;;;;;9.09;48.21;96050.78;5028777;28;20235;-83
2021/03/04 05:54:55;;;;;;;8.93;4.90;;;;;;;9.07;48.24;96047.56;5029349;28;20237;-82
2021/03/04 05:57:21;;;;;;;8.23;4.53;;;;;;;9.08;48.49;96039.69;5029556;28;20237;-82
2021/03/04 05:59:51;;;;;;;8.73;4.80;;;;;;;9.05;48.38;96040.00;5030754;28;20257;-84
2021/03/04 06:02:20;;;;;;;9.10;5.00;;;;;;;9.07;48.53;96042.41;5033127;28;20233;-83
2021/03/04 06:04:46;;;;;;;8.17;5.10;;;;;;;9.06;48.78;96038.25;5014749;28;20245;-83
2021/03/04 06:07:12;;;;;;;7.67;4.87;;;;;;;9.05;48.34;96041.78;5032501;28;20265;-82
2021/03/04 06:09:38;;;;;;;9.33;5.00;;;;;;;9.02;48.52;96039.53;5049985;28;20236;-84
2021/03/04 06:12:07;;;;;;;6.07;4.60;;;;;;;8.98;48.48;96037.28;5052759;28;20252;-83
2021/03/04 06:14:34;;;;;;;7.37;4.87;;;;;;;8.98;48.83;96034.72;5052458;28;20225;-82
2021/03/04 06:17:11;;;;;;;8.27;4.83;;;;;;;8.98;48.62;96031.34;5048004;28;20256;-82
2021/03/04 06:19:37;;;;;;;7.70;4.90;;;;;;;8.96;48.56;96023.78;5032235;28;20437;-83
2021/03/04 06:22:03;;;;;;;17.33;8.50;;;;;;;8.98;48.22;96028.75;5033781;28;20206;-83
2021/03/04 06:24:29;;;;;;;14.10;7.97;;;;;;;8.99;48.23;96032.94;5032834;28;20279;-83
2021/03/04 06:26:56;;;;;;;5.77;4.77;;;;;;;8.96;48.46;96030.69;5032228;28;20596;-83
2021/03/04 06:29:25;;;;;;;10.07;4.47;;;;;;;9.01;48.58;96028.47;5030816;28;20279;-84
2021/03/04 06:32:00;;;;;;;6.63;4.60;;;;;;;9.06;48.65;96021.06;5023250;28;20244;-83
2021/03/04 06:34:27;;;;;;;9.80;4.07;;;;;;;9.09;48.40;96023.31;5032884;28;20209;-82
2021/03/04 06:36:55;;;;;;;9.07;4.10;;;;;;;9.12;48.43;96028.16;5037974;28;20732;-83
2021/03/04 06:39:22;;;;;;;4.23;3.77;;;;;;;9.14;47.76;96031.38;5032240;28;20233;-82
2021/03/04 06:41:58;;;;;;;6.07;3.90;;;;;;;9.16;47.72;96016.63;5032245;28;20847;-84
2021/03/04 06:44:25;;;;;;;8.13;4.20;;;;;;;9.19;47.94;96018.88;5032352;28;20778;-83
2021/03/04 06:46:51;;;;;;;7.33;4.50;;;;;;;9.26;47.91;96022.41;5033267;28;20300;-84
2021/03/04 06:49:17;;;;;;;7.83;4.30;;;;;;;9.27;48.03;96025.78;5034266;28;20795;-85
2021/03/04 06:51:43;;;;;;;15.50;5.17;;;;;;;9.31;47.92;96021.94;5033216;28;20674;-85
2021/03/04 06:54:21;;;;;;;16.43;5.40;;;;;;;9.29;47.22;96016.97;5033301;28;20226;-85
2021/03/04 06:56:47;;;;;;;18.33;5.30;;;;;;;9.31;47.58;96020.19;5033391;28;20261;-85
2021/03/04 06:59:13;;;;;;;15.43;5.60;;;;;;;9.35;47.77;96021.47;5033029;28;20355;-86
2021/03/04 07:01:40;;;;;;;18.77;6.13;;;;;;;9.42;47.10;96019.09;5035423;28;20809;-86
2021/03/04 07:04:13;;;;;;;24.83;6.40;;;;;;;9.42;47.63;96015.72;5034052;28;20225;-86
2021/03/04 07:06:39;;;;;;;25.90;6.63;;;;;;;9.46;47.66;96011.84;5033411;28;20654;-86
2021/03/04 07:09:08;;;;;;;30.93;6.10;;;;;;;9.50;47.24;96010.56;5033342;28;20226;-84
2021/03/04 07:11:36;;;;;;;27.00;6.97;;;;;;;9.52;47.16;96013.78;5034108;28;20318;-83
2021/03/04 07:14:03;;;;;;;31.00;14.27;;;;;;;9.57;46.82;96006.41;5033917;28;20241;-85
2021/03/04 07:16:33;;;;;;;24.80;12.43;;;;;;;9.60;46.97;96009.47;5034753;28;20225;-84
2021/03/04 07:19:01;;;;;;;14.07;7.13;;;;;;;9.57;46.63;96016.69;5034005;28;20249;-85
2021/03/04 07:21:36;;;;;;;20.43;6.77;;;;;;;9.58;46.01;96013.16;5032853;28;20248;-85
2021/03/04 07:24:04;;;;;;;19.17;5.43;;;;;;;9.61;45.91;96013.66;5033558;28;20237;-85
2021/03/04 07:26:31;;;;;;;19.80;4.70;;;;;;;9.67;45.77;96020.69;5032971;28;20257;-85
2021/03/04 07:28:57;;;;;;;14.87;5.23;;;;;;;9.72;45.63;96009.13;5033217;28;20650;-84
2021/03/04 07:31:23;;;;;;;15.37;4.77;;;;;;;9.68;45.95;96017.16;5033399;28;20198;-84
2021/03/04 07:33:51;;;;;;;13.83;5.07;;;;;;;9.60;46.53;96013.81;5033208;28;20830;-85
2021/03/04 07:36:21;;;;;;;10.40;4.77;;;;;;;9.63;46.36;95998.84;5032944;28;20238;-83
2021/03/04 07:38:54;;;;;;;14.73;4.50;;;;;;;9.69;46.56;96005.13;5032374;28;20276;-85
2021/03/04 07:41:20;;;;;;;14.90;4.47;;;;;;;9.78;46.64;96004.16;5032790;28;20218;-83
2021/03/04 07:43:49;;;;;;;9.30;4.47;;;;;;;9.85;45.89;96004.31;5032355;28;20222;-85
2021/03/04 07:46:35;;;;;;;9.53;4.80;;;;;;;9.89;45.77;95993.53;5033294;28;20226;-85
2021/03/04 07:49:03;;;;;;;14.37;5.63;;;;;;;9.95;45.81;95997.25;5031940;28;20220;-86
2021/03/04 07:51:42;;;;;;;12.13;4.63;;;;;;;9.98;45.09;95986.63;5031578;28;20236;-83
2021/03/04 07:54:09;;;;;;;13.60;4.37;;;;;;;10.01;44.85;95994.81;5045687;28;20236;-83
2021/03/04 07:56:35;;;;;;;13.40;4.27;;;;;;;9.98;44.79;95997.72;5051400;28;20233;-83
2021/03/04 07:59:09;;;;;;;10.93;4.10;;;;;;;10.03;44.79;95980.00;5051495;28;20229;-84
2021/03/04 08:01:35;;;;;;;12.27;3.70;;;;;;;10.12;44.76;95990.31;5051244;28;20200;-86
2021/03/04 08:04:01;;;;;;;6.13;3.80;;;;;;;10.14;44.29;95980.66;5052912;28;20303;-85
2021/03/04 08:06:28;;;;;;;13.17;4.27;;;;;;;10.18;44.13;95975.03;5051954;28;20328;-85
2021/03/04 08:08:55;;;;;;;10.10;4.07;;;;;;;10.17;44.25;95976.00;5051338;28;20287;-86
2021/03/04 08:11:25;;;;;;;11.07;3.67;;;;;;;10.24;43.75;95981.28;5050880;28;20229;-86
2021/03/04 08:13:52;;;;;;;7.73;3.60;;;;;;;10.21;42.90;95973.91;5052498;28;20803;-85
2021/03/04 08:16:18;;;;;;;10.13;3.80;;;;;;;10.33;43.66;95967.44;5053093;28;20217;-85
2021/03/04 08:18:52;;;;;;;11.10;3.67;;;;;;;10.34;42.63;95974.22;5053798;28;20233;-84
2021/03/04 08:21:18;;;;;;;7.97;3.60;;;;;;;10.37;42.31;95963.59;5052682;28;20225;-85
2021/03/04 08:23:45;;;;;;;8.27;3.30;;;;;;;10.45;42.72;95973.03;5052415;28;20240;-86
2021/03/04 08:26:21;;;;;;;12.53;4.03;;;;;;;10.46;42.40;95967.72;5037591;28;20237;-85
2021/03/04 08:28:47;;;;;;;5.43;3.50;;;;;;;10.50;42.72;95958.72;5035028;28;20202;-84
2021/03/04 08:31:14;;;;;;;7.37;3.60;;;;;;;10.52;42.19;95964.50;5032829;28;20209;-85
2021/03/04 08:33:40;;;;;;;7.37;3.97;;;;;;;10.56;41.85;95955.47;5032152;28;20659;-84
2021/03/04 08:36:06;;;;;;;17.83;4.53;;;;;;;10.52;41.66;95959.34;5031092;28;20253;-84
2021/03/04 08:38:39;;;;;;;14.33;3.73;;;;;;;10.55;42.04;95953.88;5031639;28;20729;-85
2021/03/04 08:41:05;;;;;;;9.20;3.90;;;;;;;10.62;41.87;95948.84;5031528;28;20233;-85
2021/03/04 08:43:33;;;;;;;9.53;4.00;;;;;;;10.71;41.89;95953.78;5031721;28;20224;-83
2021/03/04 08:46:00;;;;;;;6.93;3.07;;;;;;;10.81;42.23;95953.56;5032531;28;20209;-86
2021/03/04 08:48:26;;;;;;;7.30;3.30;;;;;;;10.84;42.17;95947.28;5031416;28;20308;-84
2021/03/04 08:50:55;;;;;;;7.67;4.23;;;;;;;10.80;41.65;95943.44;5031286;28;20234;-86
2021/03/04 08:53:22;;;;;;;10.73;3.60;;;;;;;10.85;41.86;95939.41;5032006;28;20237;-85
2021/03/04 08:55:52;;;;;;;8.40;3.90;;;;;;;10.85;41.68;95946.31;5032094;28;20202;-84
2021/03/04 08:58:19;;;;;;;10.43;4.67;;;;;;;10.82;41.89;95939.72;5032373;28;20205;-85
2021/03/04 09:00:50;;;;;;;9.03;4.43;;;;;;;10.89;42.32;95932.94;5031005;28;20230;-85
2021/03/04 09:03:16;;;;;;;7.63;4.17;;;;;;;11.00;42.12;95942.84;5031529;28;20242;-86
2021/03/04 09:05:42;;;;;;;8.17;4.40;;;;;;;11.08;42.53;95932.50;5031603;28;20605;-85
2021/03/04 09:08:10;;;;;;;6.60;3.90;;;;;;;11.14;42.28;95925.06;5032286;28;20243;-86
2021/03/04 09:10:49;;;;;;;7.70;4.47;;;;;;;11.18;41.88;95918.56;5031101;28;20690;-85
2021/03/04 09:13:20;;;;;;;10.70;4.63;;;;;;;11.08;42.10;95922.19;5032135;28;20252;-85
2021/03/04 09:15:50;;;;;;;7.67;4.40;;;;;;;11.14;42.20;95918.13;5031844;28;20307;-85
2021/03/04 09:18:17;;;;;;;10.53;5.07;;;;;;;11.22;42.38;95909.53;5031410;28;20248;-86
2021/03/04 09:20:45;;;;;;;7.30;4.57;;;;;;;11.25;42.12;95904.03;5031174;28;20772;-85
2021/03/04 09:23:11;;;;;;;7.10;4.83;;;;;;;11.25;41.79;95901.47;5031746;28;20244;-85
2021/03/04 09:25:38;;;;;;;6.00;4.63;;;;;;;11.24;41.73;95897.28;5032060;28;20198;-86
2021/03/04 09:28:07;;;;;;;11.63;5.00;;;;;;;11.24;41.48;95887.78;5032224;28;20217;-85
2021/03/04 09:30:33;;;;;;;12.57;5.83;;;;;;;11.33;41.20;95897.06;5048266;28;20221;-85
2021/03/04 09:33:00;;;;;;;10.80;6.37;;;;;;;11.40;41.10;95881.69;5052336;28;20317;-84
2021/03/04 09:35:27;;;;;;;8.57;5.63;;;;;;;11.52;41.17;95890.63;5055758;28;20236;-85
2021/03/04 09:37:52;;;;;;;9.80;5.60;;;;;;;11.54;40.63;95886.09;5052330;28;20237;-85
2021/03/04 09:40:23;;;;;;;11.03;5.83;;;;;;;11.60;40.63;95882.78;5034712;28;20589;-85
2021/03/04 09:42:50;;;;;;;6.70;5.37;;;;;;;11.62;40.76;95880.03;5053447;28;20275;-85
2021/03/04 09:45:16;;;;;;;9.00;5.20;;;;;;;11.64;40.99;95873.72;5054817;28;20732;-85
2021/03/04 09:47:44;;;;;;;8.70;5.53;;;;;;;11.58;40.34;95869.25;5055659;28;20240;-85
2021/03/04 09:50:22;;;;;;;9.43;6.00;;;;;;;11.70;39.59;95870.47;5054107;28;20233;-86
2021/03/04 09:53:02;;;;;;;13.57;5.60;;;;;;;11.79;38.48;95870.38;5054586;28;20216;-85
2021/03/04 09:55:37;;;;;;;10.57;6.53;;;;;;;11.95;38.46;95868.44;5054712;28;20201;-85
2021/03/04 09:58:09;;;;;;;7.03;5.10;;;;;;;12.03;37.92;95864.97;5055037;28;20267;-85
2021/03/04 10:00:35;;;;;;;11.53;5.97;;;;;;;12.02;37.24;95861.59;5053756;28;20225;-87
2021/03/04 10:03:07;;;;;;;7.03;5.10;;;;;;;12.05;36.35;95861.25;5054101;28;20248;-86
2021/03/04 10:05:35;;;;;;;7.73;5.27;;;;;;;12.08;36.48;95860.91;5055234;28;20341;-85
2021/03/04 10:08:09;;;;;;;7.37;5.40;;;;;;;12.15;37.04;95858.38;5054454;28;20225;-85
2021/03/04 10:10:36;;;;;;;6.70;5.30;;;;;;;12.22;36.89;95850.72;5054871;28;20268;-85
2021/03/04 10:13:02;;;;;;;10.13;5.80;;;;;;;12.29;36.48;95857.59;5055795;28;20736;-86
2021/03/04 10:15:32;;;;;;;9.50;4.97;;;;;;;12.32;36.34;95849.44;5055129;28;20229;-85
2021/03/04 10:17:59;;;;;;;8.83;4.77;;;;;;;12.34;35.71;95844.91;5054369;28;20305;-85
2021/03/04 10:20:25;;;;;;;7.87;4.77;;;;;;;12.35;36.20;95851.69;5054984;28;20605;-85
2021/03/04 10:22:53;;;;;;;8.30;4.70;;;;;;;12.32;34.86;95844.28;5054574;28;20228;-85
2021/03/04 10:25:22;;;;;;;6.87;4.70;;;;;;;12.42;35.21;95842.25;5054985;28;20209;-85
2021/03/04 10:27:48;;;;;;;5.83;4.17;;;;;;;12.42;35.21;95834.50;5043935;28;20226;-86
2021/03/04 10:30:16;;;;;;;6.90;4.60;;;;;;;12.51;34.88;95829.22;5033299;28;20229;-86
2021/03/04 10:32:43;;;;;;;5.87;4.57;;;;;;;12.52;34.36;95831.59;5033813;28;20656;-85
2021/03/04 10:35:11;;;;;;;5.00;4.30;;;;;;;12.51;34.34;95822.25;5033639;28;20226;-85
2021/03/04 10:37:37;;;;;;;7.40;4.67;;;;;;;12.43;33.87;95830.13;5034712;28;20214;-84
2021/03/04 10:40:06;;;;;;;6.47;4.20;;;;;;;12.63;34.32;95820.81;5033367;28;20210;-86
2021/03/04 10:42:32;;;;;;;6.23;4.53;;;;;;;12.79;34.52;95820.56;5033734;28;20246;-86
2021/03/04 10:44:59;;;;;;;5.50;4.17;;;;;;;12.84;34.23;95814.88;5032731;28;20645;-85
2021/03/04 10:47:25;;;;;;;6.33;5.13;;;;;;;12.99;34.14;95810.41;5033643;28;20748;-85
2021/03/04 10:49:51;;;;;;;8.27;4.70;;;;;;;13.24;34.70;95810.06;5032877;28;20677;-85
2021/03/04 10:52:17;;;;;;;5.87;4.73;;;;;;;13.27;33.63;95809.69;5033341;28;20204;-86
2021/03/04 10:54:43;;;;;;;7.67;4.70;;;;;;;13.47;34.32;95810.63;5034120;28;20250;-85
2021/03/04 10:57:10;;;;;;;10.27;5.17;;;;;;;13.70;33.97;95800.03;5033307;28;20237;-87
2021/03/04 10:59:36;;;;;;;7.23;4.57;;;;;;;13.95;33.99;95805.53;5032917;28;20230;-85
2021/03/04 11:02:02;;;;;;;8.33;5.10;;;;;;;14.14;33.18;95792.69;5033745;28;20253;-85
2021/03/04 11:04:28;;;;;;;6.33;5.03;;;;;;;14.14;32.85;95792.69;5033368;28;20222;-85
2021/03/04 11:06:54;;;;;;;8.83;5.37;;;;;;;14.31;33.05;95780.19;5033521;28;20272;-85
2021/03/04 11:09:20;;;;;;;8.63;5.07;;;;;;;14.36;32.29;95772.63;5033380;28;20306;-83
2021/03/04 11:11:46;;;;;;;8.07;5.60;;;;;;;14.44;32.65;95771.69;5033647;28;20230;-85
2021/03/04 11:14:13;;;;;;;6.27;4.90;;;;;;;14.51;32.21;95772.50;5034268;28;20284;-84
2021/03/04 11:16:39;;;;;;;6.67;5.10;;;;;;;14.65;32.82;95771.53;5034428;28;20233;-82
2021/03/04 11:19:05;;;;;;;7.77;5.10;;;;;;;14.69;32.38;95766.75;5034402;28;20202;-85
2021/03/04 11:21:31;;;;;;;10.10;5.80;;;;;;;14.92;32.92;95762.00;5033498;28;20238;-83
2021/03/04 11:23:57;;;;;;;9.00;5.20;;;;;;;15.10;32.41;95762.19;5033446;28;20615;-82
2021/03/04 11:26:24;;;;;;;7.83;5.50;;;;;;;15.20;32.15;95756.63;5033712;28;20238;-83
2021/03/04 11:28:49;;;;;;;7.63;5.57;;;;;;;15.37;32.48;95757.00;5033983;28;20213;-82
2021/03/04 11:31:16;;;;;;;7.50;5.77;;;;;;;15.41;32.70;95748.59;5034612;28;20210;-82
2021/03/04 11:33:42;;;;;;;6.67;5.97;;;;;;;15.49;32.97;95747.59;5033870;28;20226;-84
2021/03/04 11:36:08;;;;;;;10.40;6.07;;;;;;;15.49;32.27;95748.38;5047125;28;20449;-85
2021/03/04 11:38:34;;;;;;;11.20;5.80;;;;;;;15.62;32.13;95736.41;5045703;28;20743;-85